createdAt,value
2023-01-29T00:02:13.251Z,15.50
2023-01-29T00:05:27.408Z,13.43
2023-01-29T00:08:30.745Z,13.45
2023-01-29T00:11:33.505Z,12.63
2023-01-29T00:14:35.896Z,13.30
2023-01-29T00:17:38.527Z,14.53
2023-01-29T00:20:43.739Z,16.60
2023-01-29T00:23:47.221Z,16.83
2023-01-29T00:26:50.337Z,15.55
2023-01-29T00:30:11.977Z,16.05
2023-01-29T00:33:14.524Z,15.40
2023-01-29T00:36:19.619Z,15.55
2023-01-29T00:39:31.425Z,14.87
2023-01-29T00:43:02.887Z,16.25
2023-01-29T00:46:06.590Z,15.07
2023-01-29T00:49:10.031Z,15.73
2023-01-29T00:52:24.138Z,16.10
2023-01-29T00:55:26.805Z,16.27
2023-01-29T00:58:34.271Z,15.40
2023-01-29T01:01:55.277Z,16.73
2023-01-29T01:04:57.761Z,15.33
2023-01-29T01:08:00.433Z,15.07
2023-01-29T01:11:06.220Z,15.07
2023-01-29T01:14:09.481Z,15.23
2023-01-29T01:17:11.816Z,14.77
2023-01-29T01:20:15.699Z,13.77
2023-01-29T01:23:21.039Z,15.75
2023-01-29T01:26:23.792Z,15.38
2023-01-29T01:29:26.119Z,14.82
2023-01-29T01:32:28.791Z,15.05
2023-01-29T01:35:31.239Z,15.20
2023-01-29T01:38:33.921Z,15.38
2023-01-29T01:41:36.679Z,14.00
2023-01-29T01:44:53.430Z,15.77
2023-01-29T01:48:01.405Z,15.07
2023-01-29T01:51:06.499Z,15.40
2023-01-29T01:54:18.603Z,14.48
2023-01-29T01:57:25.391Z,14.07
2023-01-29T02:00:28.243Z,13.68
2023-01-29T02:03:52.085Z,14.10
2023-01-29T02:07:14.591Z,15.13
2023-01-29T02:10:18.956Z,14.82
2023-01-29T02:13:21.916Z,14.13
2023-01-29T02:16:24.323Z,14.15
2023-01-29T02:19:38.845Z,13.93
2023-01-29T02:23:02.612Z,14.57
2023-01-29T02:26:47.528Z,14.68
2023-01-29T02:30:13.857Z,13.75
2023-01-29T02:33:54.183Z,15.95
2023-01-29T02:37:11.152Z,13.82
2023-01-29T02:40:27.295Z,14.97
2023-01-29T02:43:35.462Z,14.20
2023-01-29T02:47:00.485Z,13.65
2023-01-29T02:50:05.560Z,14.77
2023-01-29T02:53:17.065Z,13.40
2023-01-29T02:56:27.967Z,14.43
2023-01-29T02:59:44.130Z,14.05
2023-01-29T03:03:20.216Z,12.90
2023-01-29T03:06:28.401Z,13.70
2023-01-29T03:09:39.595Z,13.38
2023-01-29T03:12:47.049Z,12.67
2023-01-29T03:16:01.611Z,14.35
2023-01-29T03:19:13.412Z,13.20
2023-01-29T03:22:17.389Z,12.77
2023-01-29T03:25:41.393Z,14.07
2023-01-29T03:29:06.095Z,13.00
2023-01-29T03:32:10.412Z,13.50
2023-01-29T03:35:21.034Z,14.50
2023-01-29T03:38:29.681Z,12.90
2023-01-29T03:41:47.649Z,13.88
2023-01-29T03:45:02.313Z,13.57
2023-01-29T03:48:37.012Z,14.30
2023-01-29T03:51:46.061Z,13.18
2023-01-29T03:55:35.420Z,13.62
2023-01-29T03:58:56.063Z,12.88
2023-01-29T04:02:05.781Z,12.27
2023-01-29T04:05:19.410Z,12.75
2023-01-29T04:08:28.174Z,12.70
2023-01-29T04:11:36.204Z,13.25
2023-01-29T04:14:39.440Z,12.32
2023-01-29T04:17:45.767Z,12.03
2023-01-29T04:20:48.419Z,11.55
2023-01-29T04:23:51.027Z,10.68
2023-01-29T04:27:21.290Z,9.50
2023-01-29T04:30:43.857Z,9.23
2023-01-29T04:34:13.894Z,10.07
2023-01-29T04:37:27.076Z,10.35
2023-01-29T04:41:04.995Z,10.68
2023-01-29T04:44:46.779Z,9.55
2023-01-29T04:48:00.339Z,11.02
2023-01-29T04:51:19.932Z,10.10
2023-01-29T04:54:41.083Z,11.40
2023-01-29T04:57:53.280Z,11.30
2023-01-29T05:00:56.546Z,10.63
2023-01-29T05:04:04.653Z,11.63
2023-01-29T05:07:11.901Z,9.90
2023-01-29T05:10:18.356Z,10.23
2023-01-29T05:13:23.432Z,10.27
2023-01-29T05:16:30.143Z,9.38
2023-01-29T05:19:32.500Z,9.48
2023-01-29T05:22:39.908Z,9.07
2023-01-29T05:25:42.296Z,9.02
2023-01-29T05:28:44.915Z,9.82
2023-01-29T05:31:47.393Z,8.98
2023-01-29T05:34:50.168Z,8.50
2023-01-29T05:37:52.458Z,8.97
2023-01-29T05:40:55.309Z,9.38
2023-01-29T05:43:57.624Z,7.32
2023-01-29T05:47:02.657Z,9.35
2023-01-29T05:50:06.430Z,9.13
2023-01-29T05:53:09.363Z,7.47
2023-01-29T05:56:11.747Z,8.32
2023-01-29T05:59:15.852Z,7.80
2023-01-29T06:02:18.251Z,6.55
2023-01-29T06:05:21.069Z,9.00
2023-01-29T06:08:23.379Z,6.60
2023-01-29T06:11:26.085Z,8.32
2023-01-29T06:14:28.815Z,8.70
2023-01-29T06:17:31.428Z,7.93
2023-01-29T06:20:33.817Z,8.38
2023-01-29T06:23:36.683Z,7.30
2023-01-29T06:26:39.120Z,7.85
2023-01-29T06:29:41.672Z,9.55
2023-01-29T06:32:44.038Z,9.30
2023-01-29T06:35:46.711Z,7.82
2023-01-29T06:38:49.243Z,8.60
2023-01-29T06:41:52.012Z,8.85
2023-01-29T06:44:55.463Z,8.52
2023-01-29T06:48:00.488Z,9.60
2023-01-29T06:51:08.610Z,9.15
2023-01-29T06:54:11.319Z,6.20
2023-01-29T06:57:13.664Z,10.13
2023-01-29T07:00:17.357Z,9.45
2023-01-29T07:03:19.840Z,9.02
2023-01-29T07:06:27.744Z,8.77
2023-01-29T07:09:30.130Z,8.33
2023-01-29T07:12:33.007Z,8.70
2023-01-29T07:15:37.331Z,9.35
2023-01-29T07:18:40.014Z,7.87
2023-01-29T07:21:42.323Z,8.77
2023-01-29T07:24:45.087Z,9.57
2023-01-29T07:27:47.500Z,6.32
2023-01-29T07:30:50.181Z,5.75
2023-01-29T07:33:53.723Z,7.50
2023-01-29T07:36:56.941Z,8.20
2023-01-29T07:39:59.301Z,8.27
2023-01-29T07:43:04.143Z,7.60
2023-01-29T07:46:08.839Z,8.93
2023-01-29T07:49:11.574Z,7.72
2023-01-29T07:52:13.936Z,8.13
2023-01-29T07:55:17.080Z,7.50
2023-01-29T07:58:19.749Z,6.07
2023-01-29T08:01:22.473Z,5.40
2023-01-29T08:04:25.407Z,7.20
2023-01-29T08:07:27.865Z,5.85
2023-01-29T08:10:30.608Z,7.33
2023-01-29T08:13:33.534Z,7.87
2023-01-29T08:16:36.329Z,7.65
2023-01-29T08:19:38.820Z,6.18
2023-01-29T08:22:41.424Z,7.65
2023-01-29T08:25:44.313Z,7.53
2023-01-29T08:28:47.027Z,7.87
2023-01-29T08:31:49.441Z,7.18
2023-01-29T08:34:52.165Z,6.82
2023-01-29T08:37:56.171Z,7.65
2023-01-29T08:40:58.804Z,6.03
2023-01-29T08:44:02.424Z,6.62
2023-01-29T08:47:05.234Z,7.32
2023-01-29T08:50:08.299Z,7.18
2023-01-29T08:53:10.959Z,7.00
2023-01-29T08:56:19.573Z,7.30
2023-01-29T08:59:36.324Z,7.05
2023-01-29T09:02:38.750Z,6.20
2023-01-29T09:05:41.799Z,6.95
2023-01-29T09:08:44.375Z,7.93
2023-01-29T09:11:47.067Z,6.10
2023-01-29T09:14:49.446Z,6.45
2023-01-29T09:17:52.270Z,6.03
2023-01-29T09:20:54.653Z,7.22
2023-01-29T09:23:57.350Z,5.15
2023-01-29T09:26:59.728Z,6.50
2023-01-29T09:30:02.513Z,6.15
2023-01-29T09:33:08.341Z,6.10
2023-01-29T09:36:11.016Z,5.60
2023-01-29T09:39:13.397Z,6.25
2023-01-29T09:42:43.802Z,6.97
2023-01-29T09:45:55.119Z,5.95
2023-01-29T09:49:07.601Z,6.35
2023-01-29T09:52:27.200Z,5.60
2023-01-29T09:55:45.935Z,5.05
2023-01-29T09:58:48.537Z,6.23
2023-01-29T10:02:06.157Z,5.68
2023-01-29T10:05:36.442Z,4.75
2023-01-29T10:09:00.511Z,4.75
2023-01-29T10:12:29.789Z,4.25
2023-01-29T10:15:57.975Z,5.77
2023-01-29T10:19:21.273Z,4.93
2023-01-29T10:22:45.526Z,4.28
2023-01-29T10:25:49.079Z,5.28
2023-01-29T10:28:55.357Z,5.43
2023-01-29T10:32:05.040Z,3.13
2023-01-29T10:35:30.612Z,4.57
2023-01-29T10:38:53.348Z,4.32
2023-01-29T10:42:13.767Z,3.30
2023-01-29T10:45:31.545Z,5.35
2023-01-29T10:48:44.721Z,5.20
2023-01-29T10:51:47.381Z,3.25
2023-01-29T10:55:18.012Z,3.35
2023-01-29T10:58:37.084Z,4.05
2023-01-29T11:01:39.488Z,2.37
2023-01-29T11:04:42.231Z,4.80
2023-01-29T11:07:44.814Z,4.50
2023-01-29T11:11:13.536Z,4.43
2023-01-29T11:14:26.863Z,3.85
2023-01-29T11:17:29.737Z,4.80
2023-01-29T11:20:34.318Z,5.53
2023-01-29T11:23:37.012Z,4.35
2023-01-29T11:26:42.393Z,5.00
2023-01-29T11:29:47.995Z,5.85
2023-01-29T11:32:57.044Z,5.07
2023-01-29T11:36:00.606Z,4.97
2023-01-29T11:39:09.183Z,3.40
2023-01-29T11:42:21.030Z,8.70
2023-01-29T11:45:23.423Z,3.62
2023-01-29T11:48:50.243Z,4.28
2023-01-29T11:51:56.055Z,5.07
2023-01-29T11:55:03.747Z,5.30
2023-01-29T11:58:27.598Z,5.55
2023-01-29T12:01:37.316Z,5.40
2023-01-29T12:04:40.366Z,5.62
2023-01-29T12:07:45.513Z,4.50
2023-01-29T12:10:48.319Z,5.07
2023-01-29T12:13:59.759Z,4.70
2023-01-29T12:17:12.247Z,5.22
2023-01-29T12:20:28.175Z,4.85
2023-01-29T12:23:58.323Z,5.70
2023-01-29T12:27:15.868Z,3.62
2023-01-29T12:30:31.588Z,3.83
2023-01-29T12:33:40.078Z,3.83
2023-01-29T12:36:55.404Z,5.15
2023-01-29T12:39:57.780Z,5.20
2023-01-29T12:43:07.132Z,4.12
2023-01-29T12:46:35.097Z,4.05
2023-01-29T12:49:39.758Z,3.22
2023-01-29T12:52:48.300Z,3.25
2023-01-29T12:55:57.675Z,3.73
2023-01-29T12:59:04.787Z,5.15
2023-01-29T13:06:25.517Z,4.75
2023-01-29T13:09:33.340Z,4.25
2023-01-29T13:12:38.697Z,5.20
2023-01-29T13:15:44.300Z,5.03
2023-01-29T13:18:52.861Z,4.65
2023-01-29T13:22:01.257Z,3.95
2023-01-29T13:25:05.770Z,4.10
2023-01-29T13:28:19.000Z,5.50
2023-01-29T13:31:33.744Z,4.72
2023-01-29T13:34:48.663Z,4.45
2023-01-29T13:37:55.246Z,4.53
2023-01-29T13:41:03.677Z,2.85
2023-01-29T13:44:09.503Z,6.30
2023-01-29T13:47:28.213Z,4.68
2023-01-29T13:50:38.563Z,4.07
2023-01-29T13:53:42.390Z,5.20
2023-01-29T13:56:58.450Z,4.75
2023-01-29T14:00:01.119Z,3.43
2023-01-29T14:03:04.771Z,3.90
2023-01-29T14:06:08.698Z,3.90
2023-01-29T14:09:40.167Z,4.53
2023-01-29T14:12:43.996Z,5.07
2023-01-29T14:15:54.566Z,5.00
2023-01-29T14:19:00.173Z,5.45
2023-01-29T14:22:02.665Z,4.47
2023-01-29T14:25:06.728Z,2.87
2023-01-29T14:28:16.679Z,5.28
2023-01-29T14:32:13.758Z,5.20
2023-01-29T14:35:49.348Z,5.25
2023-01-29T14:38:54.509Z,5.32
2023-01-29T14:41:57.876Z,5.65
2023-01-29T14:45:08.571Z,5.55
2023-01-29T14:48:10.942Z,2.43
2023-01-29T14:51:16.808Z,5.30
2023-01-29T14:54:27.817Z,5.40
2023-01-29T14:57:31.819Z,6.12
2023-01-29T15:00:38.917Z,6.07
2023-01-29T15:03:50.958Z,5.50
2023-01-29T15:07:04.381Z,6.30
2023-01-29T15:10:22.701Z,6.78
2023-01-29T15:13:38.243Z,6.03
2023-01-29T15:17:18.178Z,5.37
2023-01-29T15:20:35.835Z,6.10
2023-01-29T15:23:40.741Z,6.05
2023-01-29T15:26:43.458Z,6.85
2023-01-29T15:29:57.562Z,7.40
2023-01-29T15:33:02.154Z,6.43
2023-01-29T15:36:09.357Z,6.70
2023-01-29T15:39:21.532Z,6.30
2023-01-29T15:42:26.865Z,6.60
2023-01-29T15:45:33.996Z,7.10
2023-01-29T15:48:41.052Z,6.25
2023-01-29T15:51:43.692Z,7.13
2023-01-29T15:54:47.177Z,6.35
2023-01-29T15:57:50.260Z,7.72
2023-01-29T16:00:55.578Z,8.05
2023-01-29T16:04:03.139Z,5.82
2023-01-29T16:07:05.659Z,7.30
2023-01-29T16:10:16.527Z,7.85
2023-01-29T16:13:23.597Z,7.95
2023-01-29T16:16:28.199Z,6.80
2023-01-29T16:19:30.935Z,8.27
2023-01-29T16:22:38.331Z,7.53
2023-01-29T16:25:40.812Z,7.95
2023-01-29T16:28:45.321Z,6.45
2023-01-29T16:31:50.886Z,6.10
2023-01-29T16:34:57.955Z,5.07
2023-01-29T16:38:04.768Z,7.40
2023-01-29T16:41:15.512Z,8.23
2023-01-29T16:44:20.929Z,6.28
2023-01-29T16:47:29.763Z,7.32
2023-01-29T16:50:46.245Z,7.53
2023-01-29T16:53:58.278Z,8.20
2023-01-29T16:57:02.221Z,7.87
2023-01-29T17:00:08.765Z,9.25
2023-01-29T17:03:13.207Z,9.27
2023-01-29T17:06:23.326Z,10.40
2023-01-29T17:09:32.890Z,8.50
2023-01-29T17:12:37.360Z,9.07
2023-01-29T17:15:48.244Z,9.40
2023-01-29T17:18:51.276Z,9.63
2023-01-29T17:21:53.801Z,7.62
2023-01-29T17:24:56.537Z,8.83
2023-01-29T17:28:01.578Z,9.35
2023-01-29T17:31:07.219Z,9.35
2023-01-29T17:34:14.913Z,8.52
2023-01-29T17:37:17.853Z,9.13
2023-01-29T17:40:33.531Z,9.83
2023-01-29T17:43:36.234Z,8.40
2023-01-29T17:46:38.601Z,7.32
2023-01-29T17:49:42.165Z,4.20
2023-01-29T17:52:44.547Z,5.20
2023-01-29T17:55:47.575Z,8.17
2023-01-29T17:58:50.007Z,10.05
2023-01-29T18:01:53.711Z,7.37
2023-01-29T18:08:33.787Z,7.53
2023-01-29T18:11:36.532Z,7.90
2023-01-29T18:14:38.897Z,9.43
2023-01-29T18:17:41.838Z,9.75
2023-01-29T18:20:45.120Z,8.07
2023-01-29T18:23:47.817Z,8.55
2023-01-29T18:26:51.309Z,9.83
2023-01-29T18:29:54.056Z,8.32
2023-01-29T18:32:57.620Z,8.77
2023-01-29T18:36:00.804Z,9.20
2023-01-29T18:39:03.200Z,9.20
2023-01-29T18:42:05.930Z,9.60
2023-01-29T18:45:08.762Z,9.20
2023-01-29T18:48:11.381Z,8.68
2023-01-29T18:51:13.933Z,8.93
2023-01-29T18:54:18.261Z,7.62
2023-01-29T18:58:27.174Z,8.10
2023-01-29T19:00:43.834Z,8.38
2023-01-29T19:03:46.249Z,8.38
2023-01-29T19:06:48.913Z,9.73
2023-01-29T19:09:51.317Z,7.32
2023-01-29T19:12:53.941Z,9.47
2023-01-29T19:15:56.434Z,7.53
2023-01-29T19:18:59.879Z,6.68
2023-01-29T19:22:02.506Z,7.65
2023-01-29T19:25:06.236Z,8.77
2023-01-29T19:28:09.040Z,7.83
2023-01-29T19:31:11.735Z,8.18
2023-01-29T19:34:14.595Z,8.63
2023-01-29T19:37:17.294Z,5.90
2023-01-29T19:40:19.863Z,8.38
2023-01-29T19:43:22.616Z,8.50
2023-01-29T19:46:24.964Z,7.97
2023-01-29T19:49:27.588Z,8.10
2023-01-29T19:52:50.641Z,9.30
2023-01-29T19:56:01.981Z,8.57
2023-01-29T19:59:05.127Z,8.37
2023-01-29T20:02:09.636Z,7.50
2023-01-29T20:05:13.088Z,8.40
2023-01-29T20:08:15.555Z,6.97
2023-01-29T20:11:20.801Z,8.15
2023-01-29T20:14:23.139Z,6.90
2023-01-29T20:17:25.814Z,8.88
2023-01-29T20:20:29.843Z,8.48
2023-01-29T20:23:38.400Z,9.23
2023-01-29T20:26:41.094Z,9.25
2023-01-29T20:29:45.278Z,10.40
2023-01-29T20:32:47.611Z,9.52
2023-01-29T20:36:10.850Z,9.57
2023-01-29T20:39:13.362Z,9.13
2023-01-29T20:42:15.996Z,9.00
2023-01-29T20:45:18.660Z,10.03
2023-01-29T20:48:21.299Z,10.00
2023-01-29T20:51:24.033Z,9.77
2023-01-29T20:54:26.905Z,8.82
2023-01-29T20:57:29.732Z,11.05
2023-01-29T21:00:32.367Z,9.90
2023-01-29T21:03:34.751Z,10.57
2023-01-29T21:06:37.358Z,9.27
2023-01-29T21:09:39.711Z,7.20
2023-01-29T21:12:42.340Z,7.97
2023-01-29T21:15:44.972Z,7.63
2023-01-29T21:18:47.613Z,9.32
2023-01-29T21:21:49.963Z,6.47
2023-01-29T21:24:52.593Z,9.60
2023-01-29T21:27:55.109Z,10.98
2023-01-29T21:31:11.816Z,9.57
2023-01-29T21:34:14.185Z,10.73
2023-01-29T21:37:16.861Z,9.95
2023-01-29T21:40:21.281Z,9.30
2023-01-29T21:43:23.909Z,7.43
2023-01-29T21:46:26.289Z,6.33
2023-01-29T21:49:31.027Z,7.62
2023-01-29T21:52:33.404Z,10.13
2023-01-29T21:55:36.097Z,10.07
2023-01-29T21:58:38.425Z,10.48
2023-01-29T22:01:41.089Z,8.30
2023-01-29T22:04:43.731Z,9.75
2023-01-29T22:07:46.324Z,9.60
2023-01-29T22:10:49.039Z,9.23
2023-01-29T22:13:51.670Z,10.68
2023-01-29T22:16:54.375Z,10.30
2023-01-29T22:19:56.755Z,10.48
2023-01-29T22:23:00.557Z,10.57
2023-01-29T22:26:04.578Z,9.43
2023-01-29T22:29:07.200Z,9.80
2023-01-29T22:32:10.814Z,8.63
2023-01-29T22:35:13.824Z,9.77
2023-01-29T22:38:16.238Z,9.43
2023-01-29T22:41:18.875Z,7.62
2023-01-29T22:44:21.280Z,10.15
2023-01-29T22:47:23.904Z,5.23
2023-01-29T22:50:26.262Z,9.85
2023-01-29T22:53:28.853Z,9.65
2023-01-29T22:56:31.245Z,9.77
2023-01-29T22:59:33.981Z,9.10
2023-01-29T23:02:36.534Z,8.43
2023-01-29T23:05:39.208Z,8.05
2023-01-29T23:08:41.710Z,8.07
2023-01-29T23:11:44.349Z,8.13
2023-01-29T23:14:47.064Z,8.88
2023-01-29T23:17:49.651Z,9.37
2023-01-29T23:20:56.939Z,10.02
2023-01-29T23:24:00.570Z,9.48
2023-01-29T23:27:14.677Z,7.87
2023-01-29T23:30:17.646Z,9.63
2023-01-29T23:33:20.421Z,9.53
2023-01-29T23:36:23.112Z,10.85
2023-01-29T23:39:25.440Z,9.27
2023-01-29T23:42:28.055Z,10.23
2023-01-29T23:45:30.390Z,9.13
2023-01-29T23:48:33.057Z,9.57
2023-01-29T23:51:35.434Z,10.70
2023-01-29T23:54:38.078Z,10.10
2023-01-29T23:57:40.391Z,10.43
